createdAt,value
2023-10-19T00:03:39.252Z,6.52
2023-10-19T00:09:01.057Z,6.63
2023-10-19T00:14:04.808Z,6.67
2023-10-19T00:19:08.309Z,6.65
2023-10-19T00:24:11.218Z,6.77
2023-10-19T00:29:31.802Z,6.65
2023-10-19T00:34:35.554Z,6.65
2023-10-19T00:39:48.191Z,6.64
2023-10-19T00:44:53.485Z,6.54
2023-10-19T00:49:56.623Z,6.55
2023-10-19T00:55:00.519Z,6.47
2023-10-19T01:00:13.512Z,6.46
2023-10-19T01:05:16.462Z,6.53
2023-10-19T01:10:22.854Z,6.65
2023-10-19T01:15:31.170Z,6.70
2023-10-19T01:20:34.102Z,6.74
2023-10-19T01:25:43.807Z,6.75
2023-10-19T01:30:47.213Z,6.66
2023-10-19T01:36:08.811Z,6.65
2023-10-19T01:41:15.117Z,6.65
2023-10-19T01:46:33.297Z,6.69
2023-10-19T01:51:40.240Z,6.73
2023-10-19T01:56:44.914Z,6.84
2023-10-19T02:01:47.793Z,6.88
2023-10-19T02:06:53.261Z,6.98
2023-10-19T02:11:58.511Z,7.12
2023-10-19T02:17:05.687Z,6.96
2023-10-19T02:22:10.083Z,6.83
2023-10-19T02:27:19.775Z,6.65
2023-10-19T02:32:30.328Z,6.67
2023-10-19T02:37:33.115Z,6.64
2023-10-19T02:42:35.824Z,6.67
2023-10-19T02:47:38.912Z,6.69
2023-10-19T02:52:45.084Z,6.61
2023-10-19T02:57:48.116Z,6.55
2023-10-19T03:02:53.568Z,6.27
2023-10-19T03:07:56.111Z,6.10
2023-10-19T03:12:58.904Z,5.88
2023-10-19T03:18:02.864Z,5.57
2023-10-19T03:23:05.802Z,5.24
2023-10-19T03:28:12.875Z,5.21
2023-10-19T03:33:19.733Z,5.28
2023-10-19T03:38:24.167Z,5.18
2023-10-19T03:43:28.744Z,5.29
2023-10-19T03:48:37.719Z,5.40
2023-10-19T03:53:41.415Z,5.50
2023-10-19T03:58:48.717Z,5.61
2023-10-19T04:03:54.163Z,5.82
2023-10-19T04:08:56.878Z,5.90
2023-10-19T04:14:04.883Z,6.16
2023-10-19T04:19:07.582Z,6.13
2023-10-19T04:24:11.059Z,6.45
2023-10-19T04:29:32.968Z,6.67
2023-10-19T04:34:38.266Z,6.38
2023-10-19T04:39:40.822Z,6.42
2023-10-19T04:44:43.481Z,6.55
2023-10-19T04:49:46.357Z,6.65
2023-10-19T04:54:49.103Z,6.89
2023-10-19T04:59:51.796Z,7.08
2023-10-19T05:04:55.264Z,7.09
2023-10-19T05:10:00.166Z,7.35
2023-10-19T05:15:03.071Z,7.29
2023-10-19T05:20:07.113Z,7.40
2023-10-19T05:25:09.999Z,7.64
2023-10-19T05:30:13.979Z,7.66
2023-10-19T05:35:24.160Z,7.59
2023-10-19T05:40:32.737Z,7.68
2023-10-19T05:45:40.257Z,7.87
2023-10-19T05:50:44.345Z,8.03
2023-10-19T05:55:47.524Z,8.00
2023-10-19T06:00:53.676Z,8.13
2023-10-19T06:05:58.241Z,8.12
2023-10-19T06:11:02.395Z,8.01
2023-10-19T06:16:05.625Z,8.11
2023-10-19T06:21:08.637Z,8.36
2023-10-19T06:26:14.292Z,8.41
2023-10-19T06:31:17.018Z,8.44
2023-10-19T06:36:20.668Z,8.30
2023-10-19T06:41:24.088Z,8.53
2023-10-19T06:46:28.707Z,8.49
2023-10-19T06:51:31.695Z,8.51
2023-10-19T06:56:34.458Z,8.76
2023-10-19T07:01:37.820Z,8.77
2023-10-19T07:06:40.978Z,8.95
2023-10-19T07:11:46.212Z,9.09
2023-10-19T07:16:49.139Z,9.33
2023-10-19T07:21:58.970Z,9.62
2023-10-19T07:27:14.154Z,9.52
2023-10-19T07:32:26.126Z,9.65
2023-10-19T07:37:30.418Z,9.79
2023-10-19T07:42:34.516Z,10.07
2023-10-19T07:47:37.494Z,10.41
2023-10-19T07:52:41.196Z,10.51
2023-10-19T07:57:44.774Z,10.70
2023-10-19T08:02:49.017Z,10.96
2023-10-19T08:07:52.097Z,11.43
2023-10-19T08:12:54.843Z,11.69
2023-10-19T08:17:57.737Z,11.84
2023-10-19T08:23:03.450Z,11.86
2023-10-19T08:28:07.869Z,12.41
2023-10-19T08:33:10.722Z,12.67
2023-10-19T08:38:13.562Z,12.97
2023-10-19T08:43:19.534Z,13.23
2023-10-19T08:48:22.316Z,13.63
2023-10-19T08:53:25.799Z,14.09
2023-10-19T08:58:28.997Z,14.52
2023-10-19T09:03:31.953Z,14.95
2023-10-19T09:08:41.160Z,15.48
2023-10-19T09:13:48.447Z,15.82
2023-10-19T09:18:52.971Z,16.68
2023-10-19T09:23:57.504Z,17.18
2023-10-19T09:29:01.149Z,17.06
2023-10-19T09:34:06.977Z,18.08
2023-10-19T09:39:14.153Z,19.01
2023-10-19T09:44:23.303Z,18.83
2023-10-19T09:49:27.277Z,18.31
2023-10-19T09:54:42.778Z,18.02
2023-10-19T09:59:49.028Z,17.06
2023-10-19T10:04:51.799Z,16.70
2023-10-19T10:09:56.139Z,16.17
2023-10-19T10:15:01.019Z,16.07
2023-10-19T10:20:16.049Z,15.83
2023-10-19T10:25:29.479Z,15.82
2023-10-19T10:30:32.909Z,15.44
2023-10-19T10:35:38.969Z,15.35
2023-10-19T10:40:50.109Z,15.20
2023-10-19T10:45:53.882Z,15.18
2023-10-19T10:50:59.892Z,15.07
2023-10-19T10:56:03.148Z,15.44
2023-10-19T11:01:07.484Z,15.68
2023-10-19T11:06:10.910Z,15.98
2023-10-19T11:11:13.705Z,15.67
2023-10-19T11:16:24.955Z,15.49
2023-10-19T11:21:59.714Z,15.03
2023-10-19T11:27:03.885Z,14.93
2023-10-19T11:32:07.540Z,14.89
2023-10-19T11:37:12.574Z,14.90
2023-10-19T11:42:15.270Z,14.85
2023-10-19T11:47:18.122Z,14.92
2023-10-19T11:52:20.826Z,14.71
2023-10-19T11:57:25.074Z,14.72
2023-10-19T12:02:28.396Z,14.51
2023-10-19T12:07:32.120Z,14.35
2023-10-19T12:12:40.021Z,14.29
2023-10-19T12:17:53.467Z,14.57
2023-10-19T12:22:56.399Z,14.64
2023-10-19T12:28:01.175Z,14.50
2023-10-19T12:33:12.819Z,14.30
2023-10-19T12:38:19.048Z,14.18
2023-10-19T12:43:26.445Z,14.07
2023-10-19T12:48:35.055Z,14.02
2023-10-19T12:53:40.116Z,13.95
2023-10-19T12:58:42.986Z,13.96
2023-10-19T13:03:47.456Z,14.02
2023-10-19T13:08:50.117Z,13.92
2023-10-19T13:13:52.757Z,13.78
2023-10-19T13:18:55.520Z,13.71
2023-10-19T13:23:58.197Z,13.41
2023-10-19T13:29:01.037Z,13.26
2023-10-19T13:34:04.793Z,13.11
2023-10-19T13:39:14.354Z,13.03
2023-10-19T13:44:20.478Z,12.97
2023-10-19T13:49:24.385Z,12.76
2023-10-19T13:54:27.677Z,12.84
2023-10-19T13:59:31.500Z,12.96
2023-10-19T14:04:34.145Z,13.12
2023-10-19T14:09:36.983Z,12.98
2023-10-19T14:14:39.754Z,12.80
2023-10-19T14:19:46.380Z,12.72
2023-10-19T14:24:49.268Z,12.63
2023-10-19T14:29:51.951Z,12.70
2023-10-19T14:34:54.681Z,12.70
2023-10-19T14:39:57.539Z,12.73
2023-10-19T14:45:02.545Z,12.75
2023-10-19T14:50:07.789Z,12.89
2023-10-19T14:55:12.147Z,12.93
2023-10-19T15:00:27.550Z,13.01
2023-10-19T15:05:30.314Z,12.89
2023-10-19T15:10:33.191Z,12.79
2023-10-19T15:15:36.004Z,12.70
2023-10-19T15:20:38.742Z,12.51
2023-10-19T15:25:41.753Z,12.34
2023-10-19T15:30:44.610Z,12.30
2023-10-19T15:35:49.694Z,12.23
2023-10-19T15:40:52.430Z,12.12
2023-10-19T15:46:02.738Z,12.03
2023-10-19T15:51:06.206Z,11.97
2023-10-19T15:56:08.940Z,11.85
2023-10-19T16:01:13.903Z,11.79
2023-10-19T16:06:17.818Z,11.68
2023-10-19T16:11:21.470Z,11.53
2023-10-19T16:16:25.493Z,11.42
2023-10-19T16:21:28.298Z,11.37
2023-10-19T16:26:32.370Z,11.22
2023-10-19T16:31:36.149Z,11.14
2023-10-19T16:36:40.374Z,11.07
2023-10-19T16:41:47.664Z,10.95
2023-10-19T16:46:50.660Z,10.93
2023-10-19T16:51:53.308Z,10.85
2023-10-19T16:56:56.093Z,10.73
2023-10-19T17:01:59.496Z,10.68
2023-10-19T17:07:02.259Z,10.56
2023-10-19T17:12:05.183Z,10.46
2023-10-19T17:17:10.105Z,10.44
2023-10-19T17:22:13.112Z,10.40
2023-10-19T17:27:15.870Z,10.36
2023-10-19T17:32:18.625Z,10.33
2023-10-19T17:37:21.578Z,10.25
2023-10-19T17:42:24.257Z,10.21
2023-10-19T17:47:28.704Z,10.20
2023-10-19T17:52:31.562Z,10.14
2023-10-19T17:57:34.845Z,10.08
2023-10-19T18:02:38.681Z,10.03
2023-10-19T18:07:41.930Z,9.97
2023-10-19T18:12:46.068Z,9.95
2023-10-19T18:17:48.890Z,9.92
2023-10-19T18:22:52.317Z,9.87
2023-10-19T18:27:55.714Z,9.84
2023-10-19T18:32:58.550Z,9.76
2023-10-19T18:38:01.793Z,9.72
2023-10-19T18:43:04.667Z,9.65
2023-10-19T18:48:07.637Z,9.63
2023-10-19T18:53:10.391Z,9.54
2023-10-19T18:58:14.552Z,9.51
2023-10-19T19:03:17.424Z,9.47
2023-10-19T19:08:20.433Z,9.44
2023-10-19T19:13:23.139Z,9.35
2023-10-19T19:18:26.610Z,9.26
2023-10-19T19:23:29.772Z,9.24
2023-10-19T19:28:36.780Z,9.13
2023-10-19T19:33:39.723Z,9.09
2023-10-19T19:38:42.637Z,9.07
2023-10-19T19:43:45.442Z,9.05
2023-10-19T19:48:48.397Z,9.03
2023-10-19T19:53:52.212Z,9.06
2023-10-19T19:58:54.947Z,9.05
2023-10-19T20:03:57.698Z,9.08
2023-10-19T20:09:00.462Z,9.12
2023-10-19T20:14:04.018Z,9.17
2023-10-19T20:19:07.770Z,9.17
2023-10-19T20:24:10.711Z,9.24
2023-10-19T20:29:15.071Z,9.22
2023-10-19T20:34:17.954Z,9.15
2023-10-19T20:39:24.513Z,9.08
2023-10-19T20:44:31.370Z,8.99
2023-10-19T20:49:34.487Z,8.89
2023-10-19T20:54:37.347Z,8.82
2023-10-19T20:59:42.571Z,8.81
2023-10-19T21:04:45.208Z,8.79
2023-10-19T21:09:48.384Z,8.78
2023-10-19T21:14:51.450Z,8.83
2023-10-19T21:19:54.294Z,8.88
2023-10-19T21:24:57.441Z,8.83
2023-10-19T21:30:00.154Z,8.82
2023-10-19T21:35:03.202Z,8.77
2023-10-19T21:40:07.817Z,8.67
2023-10-19T21:45:11.276Z,8.56
2023-10-19T21:50:13.959Z,8.54
2023-10-19T21:55:17.607Z,8.50
2023-10-19T22:00:35.142Z,8.49
2023-10-19T22:05:42.550Z,8.41
2023-10-19T22:10:45.821Z,8.31
2023-10-19T22:15:48.505Z,8.22
2023-10-19T22:20:52.283Z,8.20
2023-10-19T22:25:55.072Z,8.14
2023-10-19T22:30:57.853Z,8.15
2023-10-19T22:36:00.491Z,8.10
2023-10-19T22:41:03.287Z,8.09
2023-10-19T22:46:09.663Z,8.09
2023-10-19T22:51:12.407Z,8.04
2023-10-19T22:56:15.281Z,7.99
2023-10-19T23:01:18.006Z,7.92
2023-10-19T23:06:22.410Z,8.11
2023-10-19T23:11:30.621Z,8.20
2023-10-19T23:16:37.255Z,8.36
2023-10-19T23:21:41.301Z,8.41
2023-10-19T23:26:49.902Z,8.44
2023-10-19T23:31:52.583Z,8.46
2023-10-19T23:36:55.434Z,8.46
2023-10-19T23:41:59.360Z,8.44
2023-10-19T23:47:02.197Z,8.43
2023-10-19T23:52:05.110Z,8.42
2023-10-19T23:57:07.794Z,8.52
